createdAt,value
2023-03-27T00:02:23.186Z,4.10
2023-03-27T00:04:50.276Z,4.10
2023-03-27T00:07:17.051Z,4.10
2023-03-27T00:09:46.265Z,4.00
2023-03-27T00:12:12.978Z,3.90
2023-03-27T00:14:39.714Z,3.90
2023-03-27T00:17:06.476Z,3.80
2023-03-27T00:19:33.927Z,3.70
2023-03-27T00:22:01.183Z,3.60
2023-03-27T00:24:28.279Z,3.60
2023-03-27T00:26:54.999Z,3.50
2023-03-27T00:29:21.804Z,3.40
2023-03-27T00:31:48.582Z,3.40
2023-03-27T00:34:15.324Z,3.30
2023-03-27T00:36:43.640Z,3.30
2023-03-27T00:39:11.240Z,3.20
2023-03-27T00:41:38.259Z,3.10
2023-03-27T00:44:25.163Z,3.00
2023-03-27T00:46:54.634Z,2.90
2023-03-27T00:49:22.458Z,2.80
2023-03-27T00:51:49.715Z,2.80
2023-03-27T00:54:21.915Z,2.70
2023-03-27T00:56:49.881Z,2.70
2023-03-27T00:59:19.703Z,2.70
2023-03-27T01:01:47.716Z,2.60
2023-03-27T01:04:14.698Z,2.70
2023-03-27T01:06:42.578Z,2.70
2023-03-27T01:09:09.568Z,2.70
2023-03-27T01:11:42.017Z,2.80
2023-03-27T01:14:25.765Z,2.80
2023-03-27T01:17:13.939Z,2.80
2023-03-27T01:19:59.030Z,3.00
2023-03-27T01:22:50.036Z,3.10
2023-03-27T01:25:38.447Z,3.20
2023-03-27T01:28:36.912Z,3.30
2023-03-27T01:31:32.332Z,3.20
2023-03-27T01:34:36.913Z,3.10
2023-03-27T01:37:24.929Z,3.00
2023-03-27T01:40:32.765Z,2.90
2023-03-27T01:43:07.426Z,2.80
2023-03-27T01:45:51.416Z,2.80
2023-03-27T01:48:40.265Z,2.70
2023-03-27T01:51:29.453Z,2.60
2023-03-27T01:54:00.889Z,2.60
2023-03-27T01:56:37.619Z,2.50
2023-03-27T01:59:13.959Z,2.40
2023-03-27T02:01:46.626Z,2.40
2023-03-27T02:04:18.768Z,2.30
2023-03-27T02:06:51.930Z,2.30
2023-03-27T02:09:24.633Z,2.30
2023-03-27T02:12:04.134Z,2.30
2023-03-27T02:14:37.546Z,2.20
2023-03-27T02:17:13.004Z,2.20
2023-03-27T02:19:49.532Z,2.20
2023-03-27T02:22:16.676Z,2.20
2023-03-27T02:24:43.714Z,2.10
2023-03-27T02:27:29.097Z,2.10
2023-03-27T02:30:16.267Z,2.00
2023-03-27T02:33:03.444Z,2.00
2023-03-27T02:35:50.367Z,2.00
2023-03-27T02:38:41.780Z,2.00
2023-03-27T02:41:30.486Z,2.00
2023-03-27T02:44:28.949Z,2.10
2023-03-27T02:47:14.090Z,2.10
2023-03-27T02:50:05.963Z,2.10
2023-03-27T02:52:43.698Z,2.10
2023-03-27T02:55:21.781Z,2.10
2023-03-27T02:57:56.658Z,2.10
2023-03-27T03:00:33.856Z,2.10
2023-03-27T03:03:05.754Z,2.10
2023-03-27T03:05:33.424Z,2.10
2023-03-27T03:08:00.240Z,2.00
2023-03-27T03:10:27.721Z,2.00
2023-03-27T03:12:54.636Z,1.90
2023-03-27T03:15:21.621Z,1.70
2023-03-27T03:17:48.839Z,1.70
2023-03-27T03:20:16.991Z,1.60
2023-03-27T03:22:43.868Z,1.60
2023-03-27T03:25:13.575Z,1.70
2023-03-27T03:27:41.358Z,1.70
2023-03-27T03:30:09.720Z,1.80
2023-03-27T03:32:36.476Z,1.90
2023-03-27T03:35:03.472Z,2.00
2023-03-27T03:37:30.393Z,2.10
2023-03-27T03:39:57.347Z,2.20
2023-03-27T03:42:24.419Z,2.40
2023-03-27T03:44:51.538Z,2.50
2023-03-27T03:47:18.299Z,2.60
2023-03-27T03:49:45.290Z,2.70
2023-03-27T03:52:12.123Z,2.80
2023-03-27T03:54:40.673Z,2.90
2023-03-27T03:57:08.796Z,2.90
2023-03-27T03:59:35.783Z,2.90
2023-03-27T04:02:03.169Z,2.90
2023-03-27T04:04:30.915Z,2.90
2023-03-27T04:06:58.482Z,2.90
2023-03-27T04:09:25.204Z,2.80
2023-03-27T04:11:52.081Z,2.80
2023-03-27T04:14:18.991Z,2.80
2023-03-27T04:16:45.713Z,2.70
2023-03-27T04:19:13.049Z,2.60
2023-03-27T04:21:39.897Z,2.60
2023-03-27T04:24:08.442Z,2.50
2023-03-27T04:26:35.474Z,2.50
2023-03-27T04:29:02.444Z,2.50
2023-03-27T04:31:30.377Z,2.50
2023-03-27T04:33:57.096Z,2.60
2023-03-27T04:36:24.635Z,2.70
2023-03-27T04:38:51.987Z,2.80
2023-03-27T04:41:18.877Z,2.90
2023-03-27T04:43:46.249Z,2.80
2023-03-27T04:46:13.040Z,2.60
2023-03-27T04:48:39.819Z,2.40
2023-03-27T04:51:08.334Z,2.30
2023-03-27T04:53:36.445Z,2.20
2023-03-27T04:56:04.181Z,2.10
2023-03-27T04:58:31.068Z,2.10
2023-03-27T05:00:58.210Z,2.10
2023-03-27T05:03:26.152Z,2.00
2023-03-27T05:05:53.685Z,2.00
2023-03-27T05:08:20.529Z,1.90
2023-03-27T05:10:47.277Z,1.80
2023-03-27T05:13:14.265Z,1.70
2023-03-27T05:15:41.276Z,1.70
2023-03-27T05:18:09.123Z,1.70
2023-03-27T05:20:36.729Z,1.80
2023-03-27T05:23:03.588Z,2.00
2023-03-27T05:25:31.688Z,2.10
2023-03-27T05:27:58.497Z,2.10
2023-03-27T05:30:26.858Z,2.20
2023-03-27T05:32:54.294Z,2.20
2023-03-27T05:35:23.693Z,2.20
2023-03-27T05:37:52.782Z,2.20
2023-03-27T05:40:27.404Z,2.10
2023-03-27T05:42:56.165Z,2.10
2023-03-27T05:45:24.288Z,2.10
2023-03-27T05:47:56.703Z,2.10
2023-03-27T05:50:29.422Z,2.10
2023-03-27T05:53:02.219Z,2.10
2023-03-27T05:55:29.314Z,2.20
2023-03-27T05:57:56.046Z,2.20
2023-03-27T06:00:26.357Z,2.40
2023-03-27T06:02:58.727Z,2.50
2023-03-27T06:05:29.849Z,2.50
2023-03-27T06:07:59.993Z,2.40
2023-03-27T06:10:28.801Z,2.30
2023-03-27T06:13:05.038Z,2.30
2023-03-27T06:15:33.080Z,2.20
2023-03-27T06:17:59.913Z,2.20
2023-03-27T06:20:27.677Z,2.30
2023-03-27T06:23:06.223Z,2.30
2023-03-27T06:25:34.761Z,2.50
2023-03-27T06:28:04.692Z,2.60
2023-03-27T06:30:31.538Z,2.60
2023-03-27T06:32:59.633Z,2.70
2023-03-27T06:35:29.344Z,2.70
2023-03-27T06:37:56.401Z,2.80
2023-03-27T06:40:25.585Z,2.90
2023-03-27T06:43:11.170Z,3.00
2023-03-27T06:45:51.019Z,3.20
2023-03-27T06:48:21.854Z,3.30
2023-03-27T06:50:50.943Z,3.40
2023-03-27T06:55:49.368Z,3.70
2023-03-27T06:58:18.641Z,3.90
2023-03-27T07:00:46.651Z,4.20
2023-03-27T07:03:14.298Z,4.30
2023-03-27T07:05:42.597Z,4.40
2023-03-27T07:08:23.549Z,4.30
2023-03-27T07:13:23.123Z,4.00
2023-03-27T07:15:49.871Z,4.00
2023-03-27T07:18:16.623Z,4.00
2023-03-27T07:20:44.810Z,4.00
2023-03-27T07:23:11.766Z,4.10
2023-03-27T07:25:38.886Z,4.20
2023-03-27T07:28:08.010Z,4.40
2023-03-27T07:30:35.010Z,4.60
2023-03-27T07:33:02.355Z,4.90
2023-03-27T07:35:29.686Z,5.00
2023-03-27T07:37:57.689Z,5.10
2023-03-27T07:40:37.040Z,5.20
2023-03-27T07:43:09.065Z,5.30
2023-03-27T07:45:36.239Z,5.80
2023-03-27T07:48:08.680Z,6.10
2023-03-27T07:50:36.015Z,6.20
2023-03-27T07:53:03.944Z,6.10
2023-03-27T07:55:31.290Z,5.90
2023-03-27T07:58:02.382Z,5.60
2023-03-27T08:00:31.429Z,5.00
2023-03-27T08:03:11.933Z,4.50
2023-03-27T08:05:38.970Z,4.10
2023-03-27T08:08:06.026Z,3.90
2023-03-27T08:10:32.949Z,3.70
2023-03-27T08:12:59.754Z,3.60
2023-03-27T08:15:26.833Z,3.50
2023-03-27T08:17:55.199Z,3.50
2023-03-27T08:20:24.002Z,3.70
2023-03-27T08:22:52.649Z,4.00
2023-03-27T08:25:22.615Z,4.20
2023-03-27T08:27:50.822Z,4.40
2023-03-27T08:30:19.069Z,4.70
2023-03-27T08:32:46.361Z,5.10
2023-03-27T08:35:13.770Z,5.50
2023-03-27T08:37:44.040Z,5.70
2023-03-27T08:40:20.581Z,5.90
2023-03-27T08:42:52.124Z,6.00
2023-03-27T08:45:27.423Z,6.00
2023-03-27T08:48:05.469Z,6.00
2023-03-27T08:50:41.943Z,6.00
2023-03-27T08:53:21.214Z,6.10
2023-03-27T08:55:48.164Z,6.10
2023-03-27T08:58:20.419Z,6.20
2023-03-27T09:00:58.721Z,6.30
2023-03-27T09:03:35.184Z,6.40
2023-03-27T09:06:12.575Z,6.50
2023-03-27T09:08:56.602Z,6.60
2023-03-27T09:11:56.916Z,6.70
2023-03-27T09:14:31.443Z,6.80
2023-03-27T09:17:05.059Z,7.10
2023-03-27T09:19:49.410Z,7.30
2023-03-27T09:22:25.837Z,7.60
2023-03-27T09:24:56.413Z,7.90
2023-03-27T09:27:32.476Z,7.70
2023-03-27T09:30:11.347Z,7.40
2023-03-27T09:32:39.397Z,6.90
2023-03-27T09:35:06.468Z,6.20
2023-03-27T09:37:35.137Z,5.20
2023-03-27T09:40:07.577Z,4.60
2023-03-27T09:42:39.743Z,4.40
2023-03-27T09:45:10.858Z,4.50
2023-03-27T09:47:51.055Z,4.70
2023-03-27T09:50:41.503Z,5.10
2023-03-27T09:53:12.418Z,5.40
2023-03-27T09:56:03.003Z,5.60
2023-03-27T09:58:49.109Z,5.80
2023-03-27T10:01:26.177Z,6.00
2023-03-27T10:03:55.151Z,6.30
2023-03-27T10:06:49.580Z,6.40
2023-03-27T10:09:35.100Z,6.60
2023-03-27T10:12:08.031Z,6.50
2023-03-27T10:14:41.475Z,6.30
2023-03-27T10:17:37.480Z,6.20
2023-03-27T10:20:15.643Z,6.20
2023-03-27T10:22:52.016Z,6.30
2023-03-27T10:25:29.495Z,6.70
2023-03-27T10:28:36.477Z,7.20
2023-03-27T10:31:11.052Z,7.30
2023-03-27T10:33:42.555Z,6.80
2023-03-27T10:36:11.897Z,6.20
2023-03-27T10:38:40.925Z,5.70
2023-03-27T10:41:28.431Z,5.40
2023-03-27T10:43:57.445Z,5.30
2023-03-27T10:46:27.253Z,5.50
2023-03-27T10:49:10.718Z,5.70
2023-03-27T10:52:09.807Z,6.10
2023-03-27T10:54:54.118Z,6.40
2023-03-27T10:57:28.374Z,6.90
2023-03-27T10:59:57.222Z,7.30
2023-03-27T11:02:31.062Z,7.20
2023-03-27T11:05:12.149Z,7.10
2023-03-27T11:08:00.480Z,7.30
2023-03-27T11:10:39.592Z,7.30
2023-03-27T11:13:13.500Z,7.30
2023-03-27T11:15:48.246Z,7.40
2023-03-27T11:18:34.685Z,7.50
2023-03-27T11:21:19.707Z,7.60
2023-03-27T11:23:58.165Z,7.80
2023-03-27T11:26:42.277Z,7.90
2023-03-27T11:29:23.134Z,8.20
2023-03-27T11:31:53.927Z,8.20
2023-03-27T11:34:31.053Z,8.20
2023-03-27T11:37:04.796Z,8.40
2023-03-27T11:39:53.996Z,8.80
2023-03-27T11:42:29.320Z,9.00
2023-03-27T11:44:56.900Z,9.00
2023-03-27T11:47:38.827Z,8.40
2023-03-27T11:50:16.410Z,6.60
2023-03-27T11:53:02.147Z,5.20
2023-03-27T11:55:46.366Z,4.50
2023-03-27T11:58:34.836Z,4.30
2023-03-27T12:01:12.854Z,4.40
2023-03-27T12:04:03.988Z,4.90
2023-03-27T12:06:59.675Z,5.60
2023-03-27T12:09:46.721Z,6.30
2023-03-27T12:12:24.090Z,6.80
2023-03-27T12:15:28.111Z,7.00
2023-03-27T12:17:58.579Z,7.30
2023-03-27T12:20:41.596Z,7.30
2023-03-27T12:23:28.434Z,7.20
2023-03-27T12:26:07.712Z,7.10
2023-03-27T12:28:49.605Z,7.00
2023-03-27T12:31:28.436Z,7.00
2023-03-27T12:34:02.612Z,7.00
2023-03-27T12:36:37.507Z,7.10
2023-03-27T12:39:20.118Z,7.20
2023-03-27T12:41:48.343Z,7.40
2023-03-27T12:44:18.913Z,7.60
2023-03-27T12:47:06.605Z,7.80
2023-03-27T12:49:48.430Z,8.20
2023-03-27T12:52:15.628Z,8.70
2023-03-27T12:55:14.383Z,9.00
2023-03-27T12:57:46.038Z,8.90
2023-03-27T13:00:21.522Z,8.60
2023-03-27T13:02:58.588Z,8.20
2023-03-27T13:05:27.737Z,8.10
2023-03-27T13:08:24.099Z,8.10
2023-03-27T13:11:08.803Z,8.10
2023-03-27T13:14:05.657Z,8.30
2023-03-27T13:16:42.706Z,8.40
2023-03-27T13:19:21.685Z,8.60
2023-03-27T13:21:48.363Z,8.90
2023-03-27T13:24:36.693Z,9.10
2023-03-27T13:27:42.408Z,8.60
2023-03-27T13:30:40.320Z,7.50
2023-03-27T13:33:16.885Z,6.10
2023-03-27T13:36:20.008Z,4.80
2023-03-27T13:38:52.906Z,3.90
2023-03-27T13:41:41.499Z,3.40
2023-03-27T13:44:23.864Z,3.30
2023-03-27T13:46:57.497Z,3.40
2023-03-27T13:49:51.789Z,3.60
2023-03-27T13:52:48.891Z,3.80
2023-03-27T13:55:43.941Z,4.30
2023-03-27T13:58:20.441Z,4.70
2023-03-27T14:01:00.946Z,5.20
2023-03-27T14:03:49.029Z,5.70
2023-03-27T14:06:47.490Z,6.30
2023-03-27T14:09:38.543Z,6.70
2023-03-27T14:12:19.539Z,6.90
2023-03-27T14:14:52.082Z,7.20
2023-03-27T14:17:52.549Z,7.50
2023-03-27T14:20:34.098Z,7.60
2023-03-27T14:23:22.978Z,8.00
2023-03-27T14:26:04.998Z,8.20
2023-03-27T14:28:49.498Z,7.90
2023-03-27T14:31:19.180Z,7.80
2023-03-27T14:33:58.868Z,7.80
2023-03-27T14:36:30.148Z,7.80
2023-03-27T14:39:14.762Z,7.90
2023-03-27T14:42:14.829Z,7.80
2023-03-27T14:44:41.617Z,7.70
2023-03-27T14:47:13.709Z,7.70
2023-03-27T14:49:49.004Z,7.80
2023-03-27T14:52:24.998Z,8.10
2023-03-27T14:54:55.775Z,8.30
2023-03-27T14:57:25.895Z,8.20
2023-03-27T14:59:59.493Z,8.30
2023-03-27T15:02:35.278Z,8.50
2023-03-27T15:05:09.637Z,8.90
2023-03-27T15:07:37.402Z,9.00
2023-03-27T15:10:07.115Z,9.00
2023-03-27T15:12:34.589Z,9.00
2023-03-27T15:15:01.665Z,8.90
2023-03-27T15:17:30.502Z,8.80
2023-03-27T15:20:25.407Z,8.50
2023-03-27T15:23:24.112Z,8.10
2023-03-27T15:26:01.270Z,7.80
2023-03-27T15:28:38.084Z,7.80
2023-03-27T15:31:06.151Z,7.90
2023-03-27T15:34:08.264Z,8.10
2023-03-27T15:36:37.896Z,9.70
2023-03-27T15:39:06.967Z,11.60
2023-03-27T15:41:34.940Z,12.40
2023-03-27T15:44:16.166Z,11.40
2023-03-27T15:46:59.411Z,10.00
2023-03-27T15:49:32.528Z,8.80
2023-03-27T15:52:13.636Z,7.50
2023-03-27T15:54:54.502Z,6.00
2023-03-27T15:57:21.378Z,5.10
2023-03-27T15:59:52.576Z,5.00
2023-03-27T16:02:21.715Z,5.40
2023-03-27T16:04:53.371Z,7.10
2023-03-27T16:07:30.113Z,9.20
2023-03-27T16:10:05.175Z,10.10
2023-03-27T16:12:33.829Z,9.90
2023-03-27T16:32:51.101Z,12.50
2023-03-27T16:35:18.564Z,12.90
2023-03-27T16:37:45.693Z,12.50
2023-03-27T16:40:12.792Z,11.40
2023-03-27T16:42:39.566Z,10.30
2023-03-27T16:45:07.527Z,10.50
2023-03-27T16:47:34.720Z,12.20
2023-03-27T16:52:34.734Z,14.00
2023-03-27T16:55:02.535Z,13.90
2023-03-27T16:57:29.862Z,13.30
2023-03-27T16:59:56.617Z,12.60
2023-03-27T17:02:25.462Z,12.30
2023-03-27T17:04:52.438Z,11.90
2023-03-27T17:07:19.298Z,11.70
2023-03-27T17:09:46.002Z,11.80
2023-03-27T17:12:12.785Z,11.50
2023-03-27T17:14:39.744Z,10.80
2023-03-27T17:17:06.672Z,10.30
2023-03-27T17:19:33.616Z,10.20
2023-03-27T17:22:00.300Z,9.80
2023-03-27T17:24:27.003Z,9.50
2023-03-27T17:26:53.831Z,9.00
2023-03-27T17:29:20.666Z,8.20
2023-03-27T17:31:47.462Z,7.50
2023-03-27T17:34:14.306Z,7.10
2023-03-27T17:36:47.442Z,6.90
2023-03-27T17:39:19.327Z,6.70
2023-03-27T17:41:46.106Z,6.40
2023-03-27T17:44:13.290Z,6.20
2023-03-27T17:46:40.162Z,5.90
2023-03-27T17:49:07.050Z,5.60
2023-03-27T17:51:35.409Z,5.20
2023-03-27T17:54:02.332Z,5.00
2023-03-27T17:56:29.037Z,4.80
2023-03-27T17:58:55.963Z,4.60
2023-03-27T18:01:24.670Z,4.50
2023-03-27T18:03:51.765Z,4.40
2023-03-27T18:06:19.034Z,4.30
2023-03-27T18:08:46.690Z,4.20
2023-03-27T18:11:15.880Z,4.10
2023-03-27T18:13:43.050Z,3.90
2023-03-27T18:16:11.057Z,3.90
2023-03-27T18:18:39.184Z,3.70
2023-03-27T18:21:06.794Z,3.70
2023-03-27T18:23:35.141Z,3.60
2023-03-27T18:26:06.272Z,3.50
2023-03-27T18:28:34.321Z,3.40
2023-03-27T18:31:03.463Z,3.30
2023-03-27T18:33:30.754Z,3.20
2023-03-27T18:35:58.308Z,3.10
2023-03-27T18:38:27.135Z,3.00
2023-03-27T18:40:56.142Z,3.00
2023-03-27T18:43:23.961Z,2.90
2023-03-27T18:46:04.006Z,2.90
2023-03-27T18:48:31.528Z,2.80
2023-03-27T18:51:00.976Z,2.80
2023-03-27T18:53:28.474Z,2.70
2023-03-27T18:55:55.898Z,2.70
2023-03-27T18:58:24.416Z,2.70
2023-03-27T19:00:51.565Z,2.80
2023-03-27T19:03:23.534Z,2.80
2023-03-27T19:05:52.105Z,2.80
2023-03-27T19:08:20.905Z,2.80
2023-03-27T19:10:47.759Z,2.90
2023-03-27T19:13:14.519Z,2.90
2023-03-27T19:15:42.022Z,2.90
2023-03-27T19:18:09.378Z,2.90
2023-03-27T19:20:36.412Z,3.00
2023-03-27T19:23:03.502Z,3.00
2023-03-27T19:25:33.952Z,3.00
2023-03-27T19:28:01.809Z,3.00
2023-03-27T19:30:29.454Z,3.00
2023-03-27T19:32:58.246Z,3.00
2023-03-27T19:35:26.470Z,3.10
2023-03-27T19:37:54.460Z,3.10
2023-03-27T19:40:21.492Z,3.20
2023-03-27T19:42:48.397Z,3.10
2023-03-27T19:45:15.340Z,3.10
2023-03-27T19:47:42.481Z,3.10
2023-03-27T19:50:09.876Z,3.10
2023-03-27T19:52:36.625Z,3.10
2023-03-27T19:55:04.165Z,3.10
2023-03-27T19:57:30.913Z,3.00
2023-03-27T19:59:57.660Z,3.00
2023-03-27T20:02:24.467Z,3.00
2023-03-27T20:04:51.329Z,3.00
2023-03-27T20:07:20.354Z,3.00
2023-03-27T20:09:47.216Z,3.00
2023-03-27T20:12:13.905Z,2.90
2023-03-27T20:14:40.720Z,2.90
2023-03-27T20:17:12.349Z,2.90
2023-03-27T20:19:51.028Z,2.80
2023-03-27T20:22:20.450Z,2.80
2023-03-27T20:24:50.371Z,2.80
2023-03-27T20:27:19.904Z,2.70
2023-03-27T20:29:47.560Z,2.70
2023-03-27T20:32:14.740Z,2.50
2023-03-27T20:34:41.926Z,2.40
2023-03-27T20:37:14.482Z,2.40
2023-03-27T20:39:46.809Z,2.30
2023-03-27T20:42:15.728Z,2.20
2023-03-27T20:44:46.607Z,2.10
2023-03-27T20:47:15.223Z,2.00
2023-03-27T20:49:42.954Z,2.00
2023-03-27T20:52:12.247Z,1.90
2023-03-27T20:54:39.441Z,2.00
2023-03-27T20:57:06.427Z,2.00
2023-03-27T20:59:33.376Z,2.00
2023-03-27T21:02:00.997Z,1.90
2023-03-27T21:04:29.050Z,1.90
2023-03-27T21:06:56.209Z,1.80
2023-03-27T21:09:24.855Z,1.80
2023-03-27T21:11:51.760Z,1.80
2023-03-27T21:14:18.585Z,1.80
2023-03-27T21:16:45.359Z,1.90
2023-03-27T21:19:12.207Z,1.90
2023-03-27T21:21:39.478Z,1.90
2023-03-27T21:24:06.522Z,2.10
2023-03-27T21:26:34.158Z,2.30
2023-03-27T21:29:01.403Z,2.40
2023-03-27T21:31:28.260Z,2.40
2023-03-27T21:33:55.312Z,2.40
2023-03-27T21:36:22.442Z,2.30
2023-03-27T21:38:49.362Z,2.30
2023-03-27T21:41:17.773Z,2.30
2023-03-27T21:43:45.327Z,2.20
2023-03-27T21:46:12.399Z,2.20
2023-03-27T21:48:44.692Z,2.20
2023-03-27T21:51:11.493Z,2.10
2023-03-27T21:53:38.242Z,2.10
2023-03-27T21:56:05.646Z,2.10
2023-03-27T21:58:32.384Z,2.10
2023-03-27T22:00:59.939Z,2.00
2023-03-27T22:03:28.650Z,1.90
2023-03-27T22:06:10.310Z,1.80
2023-03-27T22:08:39.009Z,1.70
2023-03-27T22:11:06.233Z,1.70
2023-03-27T22:13:38.756Z,1.70
2023-03-27T22:16:11.964Z,1.70
2023-03-27T22:18:38.926Z,1.70
2023-03-27T22:21:20.071Z,1.60
2023-03-27T22:23:48.996Z,1.50
2023-03-27T22:26:16.052Z,1.40
2023-03-27T22:28:42.981Z,1.30
2023-03-27T22:31:10.025Z,1.20
2023-03-27T22:33:37.642Z,1.10
2023-03-27T22:36:06.005Z,1.00
2023-03-27T22:38:33.586Z,0.90
2023-03-27T22:41:00.843Z,0.90
2023-03-27T22:43:31.191Z,0.80
2023-03-27T22:46:05.860Z,0.70
2023-03-27T22:48:33.143Z,0.70
2023-03-27T22:51:00.442Z,0.70
2023-03-27T22:53:27.226Z,0.70
2023-03-27T22:55:56.063Z,0.80
2023-03-27T22:58:23.458Z,0.80
2023-03-27T23:00:51.751Z,0.80
2023-03-27T23:03:20.483Z,0.80
2023-03-27T23:05:49.464Z,0.70
2023-03-27T23:08:17.478Z,0.70
2023-03-27T23:10:44.907Z,0.60
2023-03-27T23:13:12.460Z,0.60
2023-03-27T23:15:39.180Z,0.50
2023-03-27T23:18:06.065Z,0.50
2023-03-27T23:20:32.998Z,0.50
2023-03-27T23:22:59.668Z,0.50
2023-03-27T23:25:26.492Z,0.50
2023-03-27T23:27:53.178Z,0.50
2023-03-27T23:30:19.930Z,0.50
2023-03-27T23:32:46.718Z,0.40
2023-03-27T23:35:13.487Z,0.40
2023-03-27T23:37:40.425Z,0.40
2023-03-27T23:40:07.947Z,0.30
2023-03-27T23:42:34.663Z,0.30
2023-03-27T23:45:01.440Z,0.20
2023-03-27T23:47:28.330Z,0.20
2023-03-27T23:49:55.157Z,0.10
2023-03-27T23:52:21.852Z,0.10
2023-03-27T23:54:48.596Z,0.10
2023-03-27T23:57:15.382Z,0.00
2023-03-27T23:59:42.145Z,0.00
